createdAt,value
2022-12-18T00:00:05.323Z,30.70
2022-12-18T00:02:34.592Z,26.60
2022-12-18T00:05:02.698Z,27.38
2022-12-18T00:07:30.048Z,35.08
2022-12-18T00:09:57.801Z,30.58
2022-12-18T00:12:25.239Z,28.85
2022-12-18T00:14:53.157Z,30.20
2022-12-18T00:17:20.564Z,32.90
2022-12-18T00:19:49.846Z,30.73
2022-12-18T00:22:17.272Z,33.28
2022-12-18T00:24:45.174Z,31.58
2022-12-18T00:27:12.622Z,31.13
2022-12-18T00:29:40.520Z,30.75
2022-12-18T00:32:08.173Z,43.30
2022-12-18T00:34:36.067Z,35.47
2022-12-18T00:37:05.113Z,33.50
2022-12-18T00:39:33.240Z,29.15
2022-12-18T00:42:00.764Z,37.97
2022-12-18T00:44:28.661Z,30.15
2022-12-18T00:46:58.354Z,29.75
2022-12-18T00:49:29.465Z,35.00
2022-12-18T00:51:56.951Z,28.67
2022-12-18T00:54:26.763Z,31.50
2022-12-18T00:56:54.216Z,32.30
2022-12-18T00:59:22.362Z,31.55
2022-12-18T01:01:49.938Z,33.10
2022-12-18T01:04:18.092Z,28.27
2022-12-18T01:06:45.781Z,32.95
2022-12-18T01:09:13.826Z,31.40
2022-12-18T01:11:43.041Z,30.30
2022-12-18T01:14:11.008Z,35.20
2022-12-18T01:16:38.527Z,34.25
2022-12-18T01:19:06.427Z,33.38
2022-12-18T01:21:34.538Z,30.80
2022-12-18T01:24:02.740Z,32.33
2022-12-18T01:26:30.278Z,31.15
2022-12-18T01:28:59.666Z,34.60
2022-12-18T01:31:29.091Z,34.97
2022-12-18T01:33:58.004Z,31.92
2022-12-18T01:36:27.765Z,30.98
2022-12-18T01:38:56.583Z,29.35
2022-12-18T01:41:25.995Z,35.30
2022-12-18T01:43:55.715Z,34.55
2022-12-18T01:46:25.624Z,34.67
2022-12-18T01:48:56.804Z,31.45
2022-12-18T01:51:26.239Z,31.20
2022-12-18T01:53:54.397Z,24.63
2022-12-18T01:56:22.988Z,32.53
2022-12-18T01:59:03.158Z,28.40
2022-12-18T02:01:34.040Z,30.77
2022-12-18T02:04:21.950Z,31.80
2022-12-18T02:06:55.376Z,22.13
2022-12-18T02:09:31.836Z,26.27
2022-12-18T02:12:06.303Z,30.85
2022-12-18T02:14:39.720Z,27.08
2022-12-18T02:17:16.085Z,28.75
2022-12-18T02:19:56.156Z,31.95
2022-12-18T02:22:36.384Z,27.20
2022-12-18T02:25:21.860Z,26.05
2022-12-18T02:27:53.645Z,26.23
2022-12-18T02:30:22.878Z,30.98
2022-12-18T02:32:53.790Z,26.52
2022-12-18T02:35:24.891Z,21.80
2022-12-18T02:37:56.431Z,22.20
2022-12-18T02:40:27.602Z,19.80
2022-12-18T02:43:03.066Z,15.80
2022-12-18T02:45:30.955Z,17.10
2022-12-18T02:47:58.375Z,14.25
2022-12-18T02:50:35.803Z,16.98
2022-12-18T02:53:15.559Z,23.30
2022-12-18T02:55:56.268Z,23.25
2022-12-18T02:58:31.745Z,17.63
2022-12-18T03:01:03.993Z,20.52
2022-12-18T03:03:35.087Z,20.60
2022-12-18T03:06:07.035Z,27.25
2022-12-18T03:08:39.303Z,20.65
2022-12-18T03:11:09.898Z,16.92
2022-12-18T03:13:44.569Z,20.70
2022-12-18T03:16:16.241Z,17.20
2022-12-18T03:18:47.712Z,20.38
2022-12-18T03:21:19.940Z,17.15
2022-12-18T03:23:50.920Z,23.00
2022-12-18T03:26:23.702Z,17.65
2022-12-18T03:28:55.827Z,24.05
2022-12-18T03:31:27.279Z,21.25
2022-12-18T03:33:57.286Z,17.50
2022-12-18T03:36:25.650Z,18.67
2022-12-18T03:38:53.652Z,19.25
2022-12-18T03:41:32.767Z,22.35
2022-12-18T03:44:10.012Z,19.30
2022-12-18T03:46:48.529Z,17.75
2022-12-18T03:49:22.599Z,19.08
2022-12-18T03:51:55.870Z,22.70
2022-12-18T03:54:24.728Z,11.48
2022-12-18T03:56:58.435Z,18.38
2022-12-18T03:59:30.073Z,22.15
2022-12-18T04:02:00.713Z,27.65
2022-12-18T04:04:29.937Z,18.45
2022-12-18T04:06:59.446Z,21.17
2022-12-18T04:09:27.221Z,22.40
2022-12-18T04:11:55.566Z,23.63
2022-12-18T04:14:23.057Z,15.77
2022-12-18T04:16:52.326Z,19.95
2022-12-18T04:19:19.783Z,18.27
2022-12-18T04:21:47.771Z,20.42
2022-12-18T04:24:15.184Z,20.17
2022-12-18T04:26:43.074Z,19.42
2022-12-18T04:29:10.471Z,11.30
2022-12-18T04:31:38.803Z,22.92
2022-12-18T04:34:07.862Z,18.77
2022-12-18T04:36:35.723Z,22.15
2022-12-18T04:39:03.224Z,15.95
2022-12-18T04:41:31.129Z,12.43
2022-12-18T04:43:58.580Z,22.02
2022-12-18T04:46:27.196Z,16.30
2022-12-18T04:48:54.534Z,20.70
2022-12-18T04:51:26.611Z,18.63
2022-12-18T04:53:54.499Z,20.23
2022-12-18T04:56:22.754Z,19.90
2022-12-18T04:58:50.334Z,17.17
2022-12-18T05:01:19.471Z,18.27
2022-12-18T05:03:47.277Z,24.20
2022-12-18T05:06:15.406Z,26.00
2022-12-18T05:08:44.271Z,23.13
2022-12-18T05:11:14.337Z,14.57
2022-12-18T05:13:42.081Z,24.63
2022-12-18T05:16:11.293Z,23.88
2022-12-18T05:18:38.834Z,25.67
2022-12-18T05:21:06.899Z,23.95
2022-12-18T05:23:34.341Z,20.33
2022-12-18T05:26:05.560Z,21.90
2022-12-18T05:28:35.248Z,22.58
2022-12-18T05:31:04.846Z,16.35
2022-12-18T05:33:34.253Z,18.08
2022-12-18T05:36:03.393Z,29.85
2022-12-18T05:38:32.811Z,19.27
2022-12-18T05:41:00.760Z,19.67
2022-12-18T05:43:29.788Z,20.27
2022-12-18T05:45:57.838Z,26.27
2022-12-18T05:48:25.463Z,24.85
2022-12-18T05:50:53.505Z,24.05
2022-12-18T05:53:22.087Z,28.73
2022-12-18T05:55:49.984Z,26.30
2022-12-18T05:58:17.597Z,18.40
2022-12-18T06:00:47.298Z,25.00
2022-12-18T06:03:15.553Z,25.85
2022-12-18T06:05:45.429Z,27.75
2022-12-18T06:08:13.622Z,24.80
2022-12-18T06:10:42.178Z,27.35
2022-12-18T06:13:09.860Z,30.60
2022-12-18T06:15:38.573Z,39.63
2022-12-18T06:18:07.828Z,38.45
2022-12-18T06:20:35.916Z,39.15
2022-12-18T06:23:03.515Z,36.00
2022-12-18T06:25:31.753Z,39.42
2022-12-18T06:27:59.118Z,33.13
2022-12-18T06:30:27.067Z,37.30
2022-12-18T06:32:56.734Z,30.48
2022-12-18T06:35:26.365Z,27.23
2022-12-18T06:37:53.713Z,16.70
2022-12-18T06:40:21.867Z,28.13
2022-12-18T06:42:49.709Z,39.58
2022-12-18T06:45:20.099Z,19.08
2022-12-18T06:47:47.732Z,35.28
2022-12-18T06:50:15.966Z,27.23
2022-12-18T06:52:45.004Z,26.02
2022-12-18T06:55:12.867Z,31.15
2022-12-18T06:57:40.308Z,34.08
2022-12-18T07:00:09.305Z,27.33
2022-12-18T07:02:37.039Z,33.50
2022-12-18T07:05:10.540Z,32.30
2022-12-18T07:07:38.489Z,19.50
2022-12-18T07:10:08.577Z,15.02
2022-12-18T07:12:35.892Z,11.95
2022-12-18T07:15:04.579Z,31.70
2022-12-18T07:17:32.008Z,11.32
2022-12-18T07:19:59.795Z,24.83
2022-12-18T07:22:27.511Z,25.38
2022-12-18T07:24:55.527Z,28.05
2022-12-18T07:27:24.721Z,20.08
2022-12-18T07:29:52.915Z,20.77
2022-12-18T07:32:20.364Z,22.17
2022-12-18T07:34:48.421Z,17.40
2022-12-18T07:37:15.816Z,23.73
2022-12-18T07:39:43.946Z,18.65
2022-12-18T07:42:11.546Z,23.80
2022-12-18T07:44:40.891Z,18.75
2022-12-18T07:47:12.005Z,25.25
2022-12-18T07:49:40.374Z,31.20
2022-12-18T07:52:07.866Z,24.58
2022-12-18T07:54:36.162Z,26.30
2022-12-18T07:57:03.790Z,25.08
2022-12-18T07:59:31.619Z,26.92
2022-12-18T08:02:00.974Z,19.75
2022-12-18T08:04:28.946Z,32.30
2022-12-18T08:06:56.791Z,21.65
2022-12-18T08:09:24.514Z,25.33
2022-12-18T08:11:52.135Z,28.30
2022-12-18T08:14:20.303Z,25.50
2022-12-18T08:16:47.915Z,27.45
2022-12-18T08:19:17.614Z,27.08
2022-12-18T08:21:47.966Z,24.67
2022-12-18T08:24:16.048Z,19.02
2022-12-18T08:26:51.814Z,24.30
2022-12-18T08:29:29.042Z,23.33
2022-12-18T08:31:56.797Z,31.08
2022-12-18T08:34:26.177Z,28.13
2022-12-18T08:36:53.571Z,26.45
2022-12-18T08:39:21.531Z,16.60
2022-12-18T08:41:49.062Z,23.35
2022-12-18T08:44:16.869Z,25.15
2022-12-18T08:46:44.982Z,31.75
2022-12-18T08:49:13.336Z,24.35
2022-12-18T08:51:42.482Z,38.40
2022-12-18T08:54:12.642Z,19.15
2022-12-18T08:56:40.099Z,27.55
2022-12-18T08:59:08.193Z,22.50
2022-12-18T09:01:38.877Z,31.08
2022-12-18T09:04:06.959Z,9.40
2022-12-18T09:06:35.832Z,32.53
2022-12-18T09:09:06.765Z,22.98
2022-12-18T09:11:34.201Z,29.58
2022-12-18T09:14:02.651Z,30.23
2022-12-18T09:16:32.263Z,17.70
2022-12-18T09:19:01.130Z,36.22
2022-12-18T09:21:30.880Z,34.15
2022-12-18T09:23:59.538Z,18.55
2022-12-18T09:26:28.827Z,32.80
2022-12-18T09:28:57.240Z,23.90
2022-12-18T09:31:25.983Z,25.70
2022-12-18T09:33:55.757Z,31.55
2022-12-18T09:36:26.159Z,26.45
2022-12-18T09:38:54.223Z,28.48
2022-12-18T09:41:40.315Z,28.38
2022-12-18T09:44:17.268Z,34.90
2022-12-18T09:46:48.389Z,28.90
2022-12-18T09:49:20.066Z,29.95
2022-12-18T09:51:52.512Z,28.77
2022-12-18T09:56:54.194Z,29.67
2022-12-18T09:59:27.666Z,24.83
2022-12-18T10:02:01.444Z,23.63
2022-12-18T10:04:33.302Z,20.85
2022-12-18T10:07:09.388Z,27.30
2022-12-18T10:09:42.574Z,18.00
2022-12-18T10:12:23.618Z,30.92
2022-12-18T10:14:58.416Z,26.95
2022-12-18T10:17:33.474Z,34.85
2022-12-18T10:20:05.594Z,22.95
2022-12-18T10:22:47.618Z,28.58
2022-12-18T10:25:23.309Z,15.82
2022-12-18T10:27:57.392Z,21.40
2022-12-18T10:30:26.670Z,31.98
2022-12-18T10:32:54.093Z,33.10
2022-12-18T10:35:24.860Z,28.08
2022-12-18T10:38:07.563Z,34.08
2022-12-18T10:40:50.762Z,31.02
2022-12-18T10:43:23.918Z,27.30
2022-12-18T10:46:17.035Z,13.18
2022-12-18T10:48:54.824Z,25.75
2022-12-18T10:51:25.881Z,30.40
2022-12-18T10:53:57.319Z,32.42
2022-12-18T10:56:27.397Z,40.55
2022-12-18T10:59:01.803Z,29.10
2022-12-18T11:01:45.917Z,33.78
2022-12-18T11:04:18.679Z,37.10
2022-12-18T11:09:26.523Z,25.20
2022-12-18T11:11:56.962Z,35.00
2022-12-18T11:14:28.902Z,24.95
2022-12-18T11:19:54.269Z,33.67
2022-12-18T11:22:25.344Z,29.13
2022-12-18T11:25:30.091Z,36.13
2022-12-18T11:27:50.502Z,25.58
2022-12-18T11:30:25.808Z,14.10
2022-12-18T11:32:58.263Z,39.97
2022-12-18T11:35:36.559Z,15.52
2022-12-18T11:38:13.515Z,30.85
2022-12-18T11:40:46.305Z,11.88
2022-12-18T11:45:53.699Z,35.20
2022-12-18T11:48:26.545Z,14.18
2022-12-18T11:50:56.049Z,35.65
2022-12-18T11:53:25.863Z,24.58
2022-12-18T11:56:05.996Z,25.13
2022-12-18T11:58:56.552Z,31.73
2022-12-18T12:01:44.018Z,30.80
2022-12-18T12:04:42.845Z,12.95
2022-12-18T12:07:26.021Z,30.52
2022-12-18T12:10:07.118Z,34.33
2022-12-18T12:12:49.533Z,29.13
2022-12-18T12:15:38.624Z,28.05
2022-12-18T12:18:20.137Z,41.33
2022-12-18T12:20:59.156Z,27.38
2022-12-18T12:23:35.406Z,17.38
2022-12-18T12:26:08.974Z,27.25
2022-12-18T12:31:24.735Z,11.77
2022-12-18T12:34:02.726Z,19.02
2022-12-18T12:36:42.302Z,32.88
2022-12-18T12:39:17.532Z,30.75
2022-12-18T12:41:47.659Z,17.48
2022-12-18T12:44:20.218Z,24.27
2022-12-18T12:46:49.645Z,21.17
2022-12-18T12:49:28.776Z,36.10
2022-12-18T12:52:07.121Z,27.50
2022-12-18T12:54:36.404Z,18.20
2022-12-18T12:57:14.028Z,28.38
2022-12-18T12:59:52.345Z,22.13
2022-12-18T13:02:29.958Z,34.00
2022-12-18T13:05:08.724Z,30.52
2022-12-18T13:07:40.930Z,29.25
2022-12-18T13:10:33.808Z,24.35
2022-12-18T13:13:04.396Z,15.57
2022-12-18T13:15:40.048Z,43.03
2022-12-18T13:18:17.025Z,33.35
2022-12-18T13:20:53.075Z,36.53
2022-12-18T13:23:32.855Z,33.80
2022-12-18T13:26:28.139Z,30.38
2022-12-18T13:29:02.445Z,38.78
2022-12-18T13:31:59.315Z,38.20
2022-12-18T13:34:30.102Z,41.05
2022-12-18T13:37:37.017Z,31.08
2022-12-18T13:40:41.238Z,39.67
2022-12-18T13:43:33.931Z,34.08
2022-12-18T13:46:18.885Z,43.08
2022-12-18T13:48:56.234Z,29.70
2022-12-18T13:51:25.095Z,39.90
2022-12-18T13:53:55.681Z,41.50
2022-12-18T13:56:25.753Z,45.30
2022-12-18T13:59:15.423Z,31.75
2022-12-18T14:01:53.688Z,37.80
2022-12-18T14:04:24.976Z,30.38
2022-12-18T14:06:56.633Z,38.08
2022-12-18T14:09:27.783Z,40.63
2022-12-18T14:11:58.381Z,29.23
2022-12-18T14:14:32.468Z,31.15
2022-12-18T14:17:03.285Z,28.63
2022-12-18T14:19:33.126Z,44.78
2022-12-18T14:22:01.943Z,45.35
2022-12-18T14:24:29.678Z,39.50
2022-12-18T14:27:20.574Z,41.60
2022-12-18T14:29:48.150Z,46.58
2022-12-18T14:32:19.225Z,42.60
2022-12-18T14:34:48.309Z,37.20
2022-12-18T14:37:21.271Z,47.40
2022-12-18T14:39:56.766Z,44.92
2022-12-18T14:42:25.764Z,29.02
2022-12-18T14:45:14.133Z,25.42
2022-12-18T14:47:46.031Z,44.72
2022-12-18T14:50:15.371Z,41.38
2022-12-18T14:52:43.872Z,47.88
2022-12-18T14:55:17.183Z,38.03
2022-12-18T14:57:45.796Z,45.85
2022-12-18T15:00:18.416Z,35.95
2022-12-18T15:02:51.231Z,51.97
2022-12-18T15:05:21.429Z,41.85
2022-12-18T15:07:53.140Z,48.33
2022-12-18T15:10:23.238Z,31.55
2022-12-18T15:13:09.738Z,35.47
2022-12-18T15:15:49.874Z,37.88
2022-12-18T15:18:25.511Z,39.72
2022-12-18T15:20:56.432Z,44.08
2022-12-18T15:23:27.711Z,36.00
2022-12-18T15:26:01.065Z,45.38
2022-12-18T15:28:33.757Z,39.95
2022-12-18T15:31:21.449Z,35.72
2022-12-18T15:34:12.139Z,12.45
2022-12-18T15:36:41.192Z,45.08
2022-12-18T15:39:14.120Z,39.05
2022-12-18T15:41:43.511Z,23.50
2022-12-18T15:44:25.491Z,24.75
2022-12-18T15:46:54.061Z,22.85
2022-12-18T15:49:24.477Z,40.72
2022-12-18T15:51:54.909Z,42.13
2022-12-18T15:54:25.587Z,25.08
2022-12-18T15:56:54.438Z,50.28
2022-12-18T15:59:25.231Z,26.35
2022-12-18T16:01:55.177Z,31.95
2022-12-18T16:04:25.546Z,40.10
2022-12-18T16:07:14.568Z,38.28
2022-12-18T16:09:47.599Z,34.47
2022-12-18T16:12:18.783Z,59.55
2022-12-18T16:14:49.602Z,50.38
2022-12-18T16:17:20.519Z,42.85
2022-12-18T16:19:53.236Z,45.17
2022-12-18T16:22:24.801Z,51.42
2022-12-18T16:24:58.959Z,58.67
2022-12-18T16:27:30.077Z,47.67
2022-12-18T16:30:01.831Z,60.55
2022-12-18T16:32:30.652Z,30.05
2022-12-18T16:35:03.127Z,60.42
2022-12-18T16:37:32.219Z,70.57
2022-12-18T16:40:01.534Z,58.60
2022-12-18T16:42:32.284Z,57.17
2022-12-18T16:45:04.167Z,69.50
2022-12-18T16:47:35.011Z,55.25
2022-12-18T16:50:10.325Z,62.05
2022-12-18T16:52:39.150Z,58.50
2022-12-18T16:55:10.075Z,55.95
2022-12-18T16:57:39.820Z,49.55
2022-12-18T17:00:11.131Z,67.25
2022-12-18T17:02:40.578Z,68.07
2022-12-18T17:05:12.561Z,71.45
2022-12-18T17:07:42.542Z,58.47
2022-12-18T17:10:13.262Z,24.85
2022-12-18T17:12:42.324Z,49.28
2022-12-18T17:15:15.866Z,58.97
2022-12-18T17:17:44.723Z,38.13
2022-12-18T17:20:15.711Z,45.75
2022-12-18T17:22:43.892Z,69.82
2022-12-18T17:25:12.505Z,36.28
2022-12-18T17:27:40.235Z,53.45
2022-12-18T17:30:16.950Z,37.00
2022-12-18T17:32:45.009Z,51.20
2022-12-18T17:35:14.748Z,68.97
2022-12-18T17:37:42.406Z,54.10
2022-12-18T17:40:12.133Z,53.97
2022-12-18T17:42:41.227Z,58.78
2022-12-18T17:45:12.321Z,57.33
2022-12-18T17:47:40.942Z,59.75
2022-12-18T17:50:10.929Z,52.67
2022-12-18T17:52:41.241Z,37.13
2022-12-18T17:55:10.933Z,53.45
2022-12-18T17:57:38.861Z,55.08
2022-12-18T18:00:11.059Z,49.67
2022-12-18T18:02:39.308Z,52.28
2022-12-18T18:05:09.384Z,51.47
2022-12-18T18:07:40.758Z,30.38
2022-12-18T18:10:10.022Z,40.65
2022-12-18T18:12:39.581Z,33.92
2022-12-18T18:15:10.515Z,42.08
2022-12-18T18:17:38.984Z,23.95
2022-12-18T18:20:08.265Z,64.30
2022-12-18T18:22:36.192Z,44.58
2022-12-18T18:25:06.810Z,41.47
2022-12-18T18:27:38.680Z,53.90
2022-12-18T18:30:08.653Z,42.85
2022-12-18T18:32:36.423Z,44.55
2022-12-18T18:35:05.320Z,27.50
2022-12-18T18:37:32.984Z,48.95
2022-12-18T18:40:04.185Z,49.63
2022-12-18T18:42:33.499Z,19.17
2022-12-18T18:45:05.174Z,49.78
2022-12-18T18:47:32.908Z,53.45
2022-12-18T18:50:00.942Z,42.33
2022-12-18T18:52:28.644Z,64.25
2022-12-18T18:55:12.929Z,64.85
2022-12-18T18:57:43.151Z,45.15
2022-12-18T19:00:12.618Z,36.10
2022-12-18T19:02:40.678Z,62.70
2022-12-18T19:05:09.416Z,45.83
2022-12-18T19:07:37.502Z,46.60
2022-12-18T19:10:06.996Z,68.07
2022-12-18T19:12:35.315Z,67.82
2022-12-18T19:15:08.065Z,44.88
2022-12-18T19:17:35.702Z,49.95
2022-12-18T19:20:04.955Z,32.33
2022-12-18T19:22:32.967Z,62.78
2022-12-18T19:25:00.882Z,37.92
2022-12-18T19:27:28.591Z,58.92
2022-12-18T19:29:56.980Z,48.25
2022-12-18T19:32:26.079Z,22.73
2022-12-18T19:34:54.267Z,51.38
2022-12-18T19:37:22.025Z,40.75
2022-12-18T19:39:50.305Z,39.88
2022-12-18T19:42:24.907Z,64.53
2022-12-18T19:44:54.546Z,50.70
2022-12-18T19:47:22.095Z,60.33
2022-12-18T19:49:51.605Z,26.60
2022-12-18T19:52:19.555Z,25.45
2022-12-18T19:54:48.026Z,47.30
2022-12-18T19:57:15.986Z,25.58
2022-12-18T19:59:44.447Z,21.85
2022-12-18T20:02:14.169Z,22.55
2022-12-18T20:04:42.495Z,45.97
2022-12-18T20:07:11.467Z,49.28
2022-12-18T20:09:39.753Z,41.45
2022-12-18T20:12:08.714Z,67.13
2022-12-18T20:14:36.776Z,49.92
2022-12-18T20:17:04.351Z,26.15
2022-12-18T20:19:34.162Z,29.15
2022-12-18T20:22:02.382Z,42.45
2022-12-18T20:24:34.483Z,45.70
2022-12-18T20:27:02.468Z,39.05
2022-12-18T20:29:30.370Z,29.95
2022-12-18T20:31:58.562Z,34.97
2022-12-18T20:34:26.864Z,48.85
2022-12-18T20:36:54.829Z,52.25
2022-12-18T20:39:23.861Z,47.03
2022-12-18T20:41:53.856Z,39.60
2022-12-18T20:44:24.008Z,38.92
2022-12-18T20:46:53.491Z,45.47
2022-12-18T20:49:21.909Z,39.65
2022-12-18T20:51:53.099Z,63.83
2022-12-18T20:54:22.151Z,60.00
2022-12-18T20:56:50.115Z,43.55
2022-12-18T20:59:19.637Z,30.08
2022-12-18T21:01:48.163Z,44.72
2022-12-18T21:04:18.428Z,38.85
2022-12-18T21:06:51.433Z,33.00
2022-12-18T21:09:21.031Z,46.95
2022-12-18T21:11:48.724Z,41.75
2022-12-18T21:14:18.425Z,45.40
2022-12-18T21:16:48.310Z,34.17
2022-12-18T21:19:17.892Z,29.73
2022-12-18T21:21:46.095Z,46.15
2022-12-18T21:24:14.503Z,62.38
2022-12-18T21:26:45.730Z,47.97
2022-12-18T21:29:15.645Z,45.33
2022-12-18T21:31:44.215Z,29.75
2022-12-18T21:34:19.126Z,42.05
2022-12-18T21:36:47.262Z,46.97
2022-12-18T21:39:16.039Z,43.00
2022-12-18T21:41:43.868Z,44.45
2022-12-18T21:44:13.246Z,26.02
2022-12-18T21:46:42.960Z,45.47
2022-12-18T21:49:13.990Z,32.15
2022-12-18T21:51:41.582Z,38.78
2022-12-18T21:54:09.390Z,37.72
2022-12-18T21:56:47.346Z,33.75
2022-12-18T21:59:16.768Z,45.20
2022-12-18T22:01:44.512Z,30.92
2022-12-18T22:04:14.943Z,32.40
2022-12-18T22:06:43.023Z,10.18
2022-12-18T22:09:13.155Z,20.60
2022-12-18T22:11:40.895Z,36.28
2022-12-18T22:14:09.198Z,46.92
2022-12-18T22:16:36.906Z,48.67
2022-12-18T22:19:06.798Z,40.10
2022-12-18T22:21:37.729Z,46.30
2022-12-18T22:24:07.626Z,34.03
2022-12-18T22:26:40.102Z,40.78
2022-12-18T22:29:13.225Z,54.83
2022-12-18T22:31:41.227Z,35.05
2022-12-18T22:34:09.568Z,44.83
2022-12-18T22:36:40.275Z,50.90
2022-12-18T22:39:11.964Z,24.88
2022-12-18T22:41:39.459Z,49.08
2022-12-18T22:44:10.431Z,27.30
2022-12-18T22:46:45.295Z,29.00
2022-12-18T22:49:15.479Z,36.20
2022-12-18T22:51:44.908Z,31.05
2022-12-18T22:54:13.063Z,30.73
2022-12-18T22:56:40.678Z,20.85
2022-12-18T22:59:14.661Z,35.40
2022-12-18T23:01:42.268Z,29.45
2022-12-18T23:04:14.577Z,48.63
2022-12-18T23:06:42.915Z,46.55
2022-12-18T23:09:17.952Z,47.88
2022-12-18T23:11:45.802Z,16.05
2022-12-18T23:14:14.167Z,42.65
2022-12-18T23:16:41.680Z,32.55
2022-12-18T23:19:11.563Z,32.13
2022-12-18T23:21:39.254Z,37.78
2022-12-18T23:24:07.983Z,33.22
2022-12-18T23:26:36.833Z,45.65
2022-12-18T23:29:05.090Z,26.58
2022-12-18T23:31:34.440Z,36.97
2022-12-18T23:34:03.306Z,34.55
2022-12-18T23:36:37.620Z,48.47
2022-12-18T23:39:22.358Z,19.73
2022-12-18T23:41:59.255Z,24.35
2022-12-18T23:44:27.473Z,35.03
2022-12-18T23:46:55.599Z,18.05
2022-12-18T23:49:23.910Z,28.05
2022-12-18T23:51:54.237Z,32.47
2022-12-18T23:54:33.070Z,36.33
2022-12-18T23:57:02.960Z,20.33
2022-12-18T23:59:31.214Z,19.35
